Terminal Aerodrome Forecast
Issued by NWS

Home | Current Version | Previous Version | Text Only | Print | Product List | Glossary On
Versions: 1 2 3 4 5 6 7 8 9 10 11 12 13 14 15 16 17
000
FTUS43 KAPX 281134 CCA
TAFMBL
TAF COR
KMBL 281134Z 2812/0112 10004KT P6SM SKC
     FM281400 24010KT P6SM SCT030
     FM010000 20004KT P6SM SCT028 WS020/21025KT
     FM010600 20004KT 2SM -SHSN OVC022 WS020/21025KT
      AMD LTD TO CLD VIS AND WIND=

USA.gov is the U.S. government's official web portal to all federal, state and local government web resources and services.